Time;durP1;ratioP1;P1;durP2;ratioP2;P2;SDS_P1;SDS_P2;PMS_P1;PMS_P2;Temp;Humidity;BMP_temperature;BMP_pressure;BME280_temperature;BME280_humidity;BME280_pressure;Samples;Min_cycle;Max_cycle;Signal;HPM_P1;HPM_P2
2022/09/16 00:00:16;;;;;;;9.70;2.67;;;;;;;20.81;65.70;94338.25;5070716;28;20544;-74
2022/09/16 00:02:41;;;;;;;11.80;2.80;;;;;;;20.78;64.72;94330.78;5052968;28;20202;-74
2022/09/16 00:05:07;;;;;;;13.13;3.05;;;;;;;20.74;62.85;94327.13;5070991;28;20202;-74
2022/09/16 00:07:33;;;;;;;6.07;2.45;;;;;;;20.74;64.70;94332.47;5070608;28;20622;-74
2022/09/16 00:09:58;;;;;;;7.43;2.72;;;;;;;20.80;65.14;94324.09;5070627;28;20213;-74
2022/09/16 00:12:24;;;;;;;10.73;2.80;;;;;;;20.62;64.16;94308.78;5070540;28;20554;-74
2022/09/16 00:14:53;;;;;;;8.88;2.75;;;;;;;20.82;64.71;94345.22;5070619;28;20178;-74
2022/09/16 00:17:20;;;;;;;6.80;2.67;;;;;;;20.83;64.83;94354.84;5070322;28;20200;-74
2022/09/16 00:19:45;;;;;;;7.07;2.40;;;;;;;20.79;64.98;94351.13;5060516;28;20183;-74
2022/09/16 00:22:11;;;;;;;10.10;2.97;;;;;;;20.45;65.52;94328.00;5050663;28;20201;-74
2022/09/16 00:24:37;;;;;;;5.97;2.80;;;;;;;20.51;66.10;94334.06;5050452;28;20236;-74
2022/09/16 00:27:02;;;;;;;8.55;2.70;;;;;;;20.34;67.32;94342.53;5058225;28;20257;-74
2022/09/16 00:29:28;;;;;;;6.35;2.78;;;;;;;20.38;67.02;94340.91;5070357;28;20202;-74
2022/09/16 00:31:53;;;;;;;8.57;2.78;;;;;;;20.39;67.30;94328.34;5070083;28;20715;-74
2022/09/16 00:34:19;;;;;;;6.82;2.75;;;;;;;20.37;67.55;94333.97;5070601;28;20180;-74
2022/09/16 00:36:44;;;;;;;10.40;2.83;;;;;;;20.36;67.23;94331.56;5045296;28;20245;-74
2022/09/16 00:39:09;;;;;;;8.63;2.90;;;;;;;20.39;67.16;94329.13;5050387;28;20175;-74
2022/09/16 00:41:36;;;;;;;5.40;2.72;;;;;;;20.32;67.35;94323.31;5050459;28;20171;-74
2022/09/16 00:44:05;;;;;;;5.43;2.55;;;;;;;20.38;66.80;94340.91;5050251;28;20228;-74
2022/09/16 00:46:46;;;;;;;11.15;3.63;;;;;;;20.36;67.17;94356.44;5050457;28;20174;-74
2022/09/16 00:49:15;;;;;;;9.82;2.88;;;;;;;20.20;68.27;94320.22;5046872;28;20214;-74
2022/09/16 00:51:42;;;;;;;13.50;3.13;;;;;;;20.30;67.26;94346.84;5050187;28;20175;-74
2022/09/16 00:54:08;;;;;;;9.00;3.00;;;;;;;20.29;67.64;94342.56;5050032;28;20662;-74
2022/09/16 00:56:39;;;;;;;10.15;3.22;;;;;;;20.10;69.33;94339.81;5049931;28;20244;-75
2022/09/16 00:59:18;;;;;;;11.20;3.10;;;;;;;20.06;69.06;94346.03;5050050;28;20263;-74
2022/09/16 01:01:45;;;;;;;5.40;2.70;;;;;;;19.93;69.37;94345.59;5049906;28;20237;-74
2022/09/16 01:04:33;;;;;;;7.57;3.53;;;;;;;19.96;69.86;94349.59;5050017;28;20254;-74
2022/09/16 01:06:59;;;;;;;10.05;3.50;;;;;;;19.92;69.77;94343.19;5049867;28;20178;-74
2022/09/16 01:09:26;;;;;;;11.00;3.42;;;;;;;19.92;69.62;94354.69;5050038;28;20183;-74
2022/09/16 01:11:52;;;;;;;4.50;2.55;;;;;;;19.89;70.48;94349.13;5050025;28;20657;-74
2022/09/16 01:17:12;;;;;;;10.73;3.08;;;;;;;19.83;70.14;94367.06;5049859;28;20704;-75
2022/09/16 01:19:49;;;;;;;11.25;3.42;;;;;;;19.87;70.25;94368.09;5049802;28;20174;-74
2022/09/16 01:22:21;;;;;;;12.48;2.90;;;;;;;19.77;70.55;94346.81;5049899;28;20696;-74
2022/09/16 01:24:46;;;;;;;11.98;3.92;;;;;;;19.85;70.26;94366.78;5049890;28;20891;-74
2022/09/16 01:27:38;;;;;;;14.23;4.15;;;;;;;19.79;70.29;94342.00;5049809;28;20176;-74
2022/09/16 01:30:25;;;;;;;12.75;3.33;;;;;;;19.88;70.15;94364.34;5049546;28;20172;-74
2022/09/16 01:32:56;;;;;;;12.05;3.95;;;;;;;19.84;70.67;94355.28;5049517;28;20179;-74
2022/09/16 01:35:48;;;;;;;11.43;4.57;;;;;;;19.84;70.43;94352.63;5049842;28;20179;-74
2022/09/16 01:38:17;;;;;;;10.05;3.47;;;;;;;19.64;72.21;94342.09;5050940;28;20218;-74
2022/09/16 01:41:07;;;;;;;8.63;3.20;;;;;;;19.57;70.91;94342.44;5069803;28;20187;-74
2022/09/16 01:44:00;;;;;;;7.55;3.67;;;;;;;19.62;71.23;94338.94;5070570;28;20182;-74
2022/09/16 01:46:49;;;;;;;4.60;2.90;;;;;;;19.66;70.96;94339.97;5073368;28;20576;-74
2022/09/16 01:49:23;;;;;;;3.70;2.60;;;;;;;19.64;70.66;94323.41;5080750;28;20186;-74
2022/09/16 01:51:54;;;;;;;10.77;2.90;;;;;;;19.80;71.05;94348.94;5073172;28;20276;-74
2022/09/16 01:54:28;;;;;;;15.07;3.58;;;;;;;19.86;70.88;94339.00;5073439;28;20189;-74
2022/09/16 01:57:04;;;;;;;6.70;2.53;;;;;;;19.85;70.33;94346.22;5073272;28;20284;-74
2022/09/16 01:59:41;;;;;;;9.95;3.08;;;;;;;19.88;71.13;94336.84;5073183;28;20209;-74
2022/09/16 02:02:18;;;;;;;11.75;2.47;;;;;;;19.92;70.21;94327.16;5073260;28;20220;-74
2022/09/16 02:04:48;;;;;;;6.25;2.83;;;;;;;19.55;70.99;94325.88;5073161;28;20610;-74
2022/09/16 02:07:18;;;;;;;6.53;2.85;;;;;;;19.68;70.48;94327.13;5073165;28;20190;-74
2022/09/16 02:09:50;;;;;;;10.48;2.78;;;;;;;19.68;70.15;94339.69;5073110;28;20257;-74
2022/09/16 02:12:36;;;;;;;11.82;2.67;;;;;;;19.69;70.47;94330.59;5073085;28;20942;-74
2022/09/16 02:15:06;;;;;;;8.18;2.22;;;;;;;19.86;70.74;94336.31;5072802;28;20178;-74
2022/09/16 02:17:37;;;;;;;4.72;2.05;;;;;;;19.95;68.35;94327.41;5073010;28;20234;-75
2022/09/16 02:20:09;;;;;;;4.15;2.45;;;;;;;20.09;67.49;94316.84;5072819;28;20221;-74
2022/09/16 02:22:42;;;;;;;9.70;2.65;;;;;;;20.28;66.48;94335.63;5072830;28;20178;-74
2022/09/16 02:25:09;;;;;;;6.50;2.50;;;;;;;20.37;66.25;94325.94;5072476;28;20649;-74
2022/09/16 02:27:38;;;;;;;4.95;2.33;;;;;;;20.40;66.75;94317.38;5072576;28;20171;-74
2022/09/16 02:30:10;;;;;;;8.88;2.97;;;;;;;20.44;66.09;94309.56;5072592;28;20261;-74
2022/09/16 02:32:42;;;;;;;9.57;2.88;;;;;;;20.40;66.06;94338.75;5072697;28;20644;-74
2022/09/16 02:35:11;;;;;;;6.82;2.45;;;;;;;20.21;67.41;94340.53;5072717;28;20186;-74
2022/09/16 02:37:44;;;;;;;6.60;2.80;;;;;;;20.22;67.74;94356.28;5072060;28;20596;-74
2022/09/16 02:40:18;;;;;;;9.57;2.72;;;;;;;20.17;67.10;94347.50;5072401;28;20178;-73
2022/09/16 02:42:43;;;;;;;13.73;6.50;;;;;;;20.08;67.80;94325.16;5072367;28;20205;-73
2022/09/16 02:45:10;;;;;;;10.07;4.00;;;;;;;20.15;67.78;94347.78;5072183;28;20263;-74
2022/09/16 02:47:47;;;;;;;5.50;2.38;;;;;;;20.17;68.41;94336.81;5072333;28;20166;-73
2022/09/16 02:50:22;;;;;;;8.18;3.30;;;;;;;20.12;68.05;94342.22;5071548;28;20295;-74
2022/09/16 02:53:00;;;;;;;10.10;3.90;;;;;;;19.98;68.58;94350.09;5072141;28;20174;-73
2022/09/16 02:55:48;;;;;;;11.95;3.53;;;;;;;19.79;68.79;94355.34;5072222;28;20205;-73
2022/09/16 02:58:13;;;;;;;8.73;2.70;;;;;;;19.69;69.47;94355.44;5071727;28;20194;-73
2022/09/16 03:00:48;;;;;;;9.95;2.90;;;;;;;19.65;69.81;94361.59;5071765;28;20194;-75
2022/09/16 03:03:14;;;;;;;7.68;3.20;;;;;;;19.63;70.42;94366.44;5071859;28;20205;-73
2022/09/16 03:06:12;;;;;;;12.15;3.80;;;;;;;19.73;69.76;94377.81;5071890;28;20220;-74
2022/09/16 03:08:39;;;;;;;7.57;2.88;;;;;;;19.80;69.96;94381.00;5071755;28;20237;-74
2022/09/16 03:11:30;;;;;;;10.88;3.22;;;;;;;19.80;70.07;94378.31;5071989;28;20247;-74
2022/09/16 03:14:01;;;;;;;14.93;7.22;;;;;;;19.93;70.19;94385.69;5071242;28;20186;-74
2022/09/16 03:16:33;;;;;;;8.27;3.38;;;;;;;19.88;69.61;94387.59;5071583;28;20248;-73
2022/09/16 03:18:59;;;;;;;18.15;8.00;;;;;;;19.89;70.47;94387.31;5071488;28;20175;-73
2022/09/16 03:21:46;;;;;;;13.10;7.32;;;;;;;19.94;70.64;94389.94;5071311;28;20178;-73
2022/09/16 03:24:35;;;;;;;10.13;5.43;;;;;;;19.98;70.63;94401.66;5071264;28;20232;-74
2022/09/16 03:27:08;;;;;;;16.20;4.85;;;;;;;19.99;70.19;94391.75;5070798;28;20174;-73
2022/09/16 03:29:48;;;;;;;11.30;5.30;;;;;;;19.90;70.22;94364.84;5070619;28;20174;-73
2022/09/16 03:32:16;;;;;;;10.68;3.60;;;;;;;19.71;70.11;94363.16;5070974;28;20607;-73
2022/09/16 03:34:50;;;;;;;11.35;3.85;;;;;;;19.78;70.81;94369.78;5071257;28;20209;-73
2022/09/16 03:37:18;;;;;;;10.73;4.30;;;;;;;19.87;71.05;94378.00;5071113;28;20226;-74
2022/09/16 03:39:51;;;;;;;13.60;4.95;;;;;;;19.89;71.05;94357.91;5070798;28;20257;-73
2022/09/16 03:42:18;;;;;;;11.50;5.03;;;;;;;20.01;71.04;94372.78;5071047;28;20192;-73
2022/09/16 03:44:43;;;;;;;22.15;9.68;;;;;;;20.03;69.98;94359.94;5071022;28;20182;-72
2022/09/16 03:47:09;;;;;;;15.30;4.28;;;;;;;20.13;69.41;94351.84;5071127;28;20178;-73
2022/09/16 03:49:35;;;;;;;14.95;6.00;;;;;;;20.15;70.11;94349.69;5071191;28;20190;-73
2022/09/16 03:52:04;;;;;;;14.85;4.97;;;;;;;20.14;69.71;94345.41;5071042;28;20179;-73
2022/09/16 03:54:30;;;;;;;14.82;4.53;;;;;;;20.16;69.90;94335.22;5070530;28;20190;-73
2022/09/16 03:56:56;;;;;;;24.52;11.05;;;;;;;20.07;70.31;94352.94;5070393;28;20719;-73
2022/09/16 03:59:21;;;;;;;16.67;5.25;;;;;;;20.06;70.37;94356.72;5070641;28;20178;-73
2022/09/16 04:01:47;;;;;;;20.05;9.43;;;;;;;19.96;70.56;94349.59;5070582;28;20209;-73
2022/09/16 04:04:12;;;;;;;13.48;3.97;;;;;;;19.98;70.25;94348.22;5052492;28;20206;-73
2022/09/16 04:06:38;;;;;;;13.18;4.68;;;;;;;20.06;70.30;94367.41;5070381;28;20178;-73
2022/09/16 04:09:05;;;;;;;13.82;3.90;;;;;;;19.94;70.99;94373.13;5052658;28;20174;-73
2022/09/16 04:11:31;;;;;;;17.92;5.63;;;;;;;19.88;71.37;94380.38;5070423;28;20197;-73
2022/09/16 04:13:57;;;;;;;9.65;4.22;;;;;;;19.61;72.55;94384.63;5070631;28;20178;-72
2022/09/16 04:16:24;;;;;;;27.35;4.25;;;;;;;19.45;72.72;94386.56;5070198;28;20202;-73
2022/09/16 04:18:49;;;;;;;8.45;2.85;;;;;;;19.36;71.92;94366.88;5070305;28;20269;-73
2022/09/16 04:21:16;;;;;;;9.23;2.95;;;;;;;19.40;71.72;94392.72;5070334;28;20316;-73
2022/09/16 04:23:41;;;;;;;15.82;4.10;;;;;;;19.43;72.42;94405.53;5070345;28;20192;-73
2022/09/16 04:26:07;;;;;;;15.07;4.93;;;;;;;19.61;72.33;94417.47;5070286;28;20170;-72
2022/09/16 04:28:33;;;;;;;9.63;3.90;;;;;;;19.42;72.16;94365.75;5070478;28;20182;-73
2022/09/16 04:31:08;;;;;;;17.08;8.25;;;;;;;19.57;72.36;94405.72;5064461;28;20629;-73
2022/09/16 04:33:35;;;;;;;13.68;5.22;;;;;;;19.65;71.96;94409.66;5070196;28;20216;-73
2022/09/16 04:36:04;;;;;;;14.55;4.63;;;;;;;19.79;71.09;94407.97;5070143;28;20720;-73
2022/09/16 04:38:30;;;;;;;7.15;3.15;;;;;;;20.03;68.61;94408.03;5069911;28;20723;-73
2022/09/16 04:41:03;;;;;;;11.57;2.70;;;;;;;20.12;68.27;94411.72;5067965;28;20214;-73
2022/09/16 04:43:29;;;;;;;9.63;2.50;;;;;;;20.25;67.65;94416.38;5058325;28;20269;-73
2022/09/16 04:45:55;;;;;;;13.30;2.70;;;;;;;20.27;67.64;94404.34;5065744;28;20266;-74
2022/09/16 04:48:20;;;;;;;25.80;9.07;;;;;;;20.35;68.56;94416.31;5069002;28;20178;-74
2022/09/16 04:50:45;;;;;;;18.23;3.78;;;;;;;20.48;69.09;94417.56;5070010;28;20182;-73
2022/09/16 04:53:11;;;;;;;15.07;4.35;;;;;;;20.61;67.97;94417.66;5070007;28;20178;-73
2022/09/16 04:55:36;;;;;;;15.13;3.78;;;;;;;20.55;68.62;94418.00;5062987;28;20588;-74
2022/09/16 04:58:02;;;;;;;17.73;5.32;;;;;;;20.57;68.55;94411.31;5057953;28;20206;-74
2022/09/16 05:00:27;;;;;;;16.58;5.18;;;;;;;20.50;68.08;94377.94;5062730;28;20178;-73
2022/09/16 05:02:53;;;;;;;22.10;5.05;;;;;;;20.78;68.15;94403.03;5064760;28;20571;-73
2022/09/16 05:05:19;;;;;;;11.00;4.80;;;;;;;20.92;65.43;94403.97;5067173;28;20189;-73
2022/09/16 05:07:45;;;;;;;13.88;3.90;;;;;;;21.64;63.68;94404.59;5064644;28;20178;-73
2022/09/16 05:10:10;;;;;;;20.85;4.28;;;;;;;22.03;63.47;94398.94;5069925;28;20182;-73
2022/09/16 05:12:36;;;;;;;30.88;9.27;;;;;;;23.04;61.27;94401.66;5075652;28;20558;-73
2022/09/16 05:15:02;;;;;;;21.73;3.97;;;;;;;23.87;56.88;94401.19;5070075;28;20175;-73
2022/09/16 05:17:29;;;;;;;16.55;5.70;;;;;;;24.43;54.99;94394.47;5070014;28;20231;-73
2022/09/16 05:19:55;;;;;;;23.20;10.23;;;;;;;25.54;52.52;94404.84;5072707;28;20566;-74
2022/09/16 05:22:20;;;;;;;16.50;5.20;;;;;;;26.73;48.60;94407.00;5073757;28;20182;-73
2022/09/16 05:24:46;;;;;;;14.35;4.40;;;;;;;27.55;47.61;94405.69;5074014;28;20178;-74
2022/09/16 05:27:11;;;;;;;43.72;19.50;;;;;;;28.10;47.42;94400.03;5073853;28;20171;-74
2022/09/16 05:29:36;;;;;;;21.27;11.68;;;;;;;28.55;46.45;94399.28;5073905;28;20220;-74
2022/09/16 05:32:02;;;;;;;41.63;23.40;;;;;;;28.88;45.46;94412.81;5073716;28;20629;-74
2022/09/16 05:34:27;;;;;;;20.75;7.40;;;;;;;28.68;44.77;94402.81;5089306;28;20268;-74
2022/09/16 05:36:54;;;;;;;16.15;5.35;;;;;;;28.21;45.51;94388.78;5073189;28;20612;-74
2022/09/16 05:39:21;;;;;;;15.18;4.88;;;;;;;27.80;47.19;94387.69;5062254;28;20197;-74
2022/09/16 05:41:46;;;;;;;30.05;7.90;;;;;;;27.44;48.18;94382.81;5087552;28;20189;-74
2022/09/16 05:44:13;;;;;;;27.73;5.50;;;;;;;27.52;48.95;94381.97;5054296;28;20183;-74
2022/09/16 05:46:42;;;;;;;18.88;5.55;;;;;;;28.01;47.63;94374.16;5053992;28;20524;-75
2022/09/16 05:49:08;;;;;;;16.15;4.00;;;;;;;28.55;46.39;94385.72;5072254;28;20182;-75
2022/09/16 05:51:36;;;;;;;14.07;3.97;;;;;;;29.04;45.22;94389.34;5073686;28;20253;-75
2022/09/16 05:54:02;;;;;;;16.65;4.65;;;;;;;29.56;43.66;94400.28;5073117;28;20170;-75
2022/09/16 05:56:30;;;;;;;20.23;7.10;;;;;;;29.78;42.83;94396.28;5073180;28;20198;-74
2022/09/16 05:58:58;;;;;;;16.02;5.28;;;;;;;29.95;41.43;94401.47;5073394;28;20611;-75
2022/09/16 06:01:29;;;;;;;15.07;4.90;;;;;;;30.23;41.03;94398.78;5073398;28;20535;-75
2022/09/16 06:03:55;;;;;;;15.90;4.40;;;;;;;30.70;39.50;94381.81;5073384;28;20201;-75
2022/09/16 06:06:34;;;;;;;24.65;4.97;;;;;;;31.04;38.77;94399.38;5072592;28;20202;-76
2022/09/16 06:09:06;;;;;;;25.00;7.03;;;;;;;31.69;38.18;94394.31;5072782;28;20178;-75
2022/09/16 06:11:34;;;;;;;19.15;5.50;;;;;;;32.88;35.49;94405.28;5072184;28;20206;-75
2022/09/16 06:14:00;;;;;;;15.57;3.70;;;;;;;33.47;31.97;94390.31;5072132;28;20166;-75
2022/09/16 06:16:27;;;;;;;12.60;3.95;;;;;;;33.93;32.37;94382.78;5072257;28;20646;-75
2022/09/16 06:18:54;;;;;;;15.95;4.18;;;;;;;33.58;33.13;94378.38;5072228;28;20269;-75
2022/09/16 06:21:20;;;;;;;18.73;5.90;;;;;;;32.93;35.26;94383.97;5072982;28;20179;-75
2022/09/16 06:23:46;;;;;;;35.13;3.63;;;;;;;32.78;34.10;94379.41;5072837;28;20175;-75
2022/09/16 06:26:14;;;;;;;9.52;3.40;;;;;;;32.31;36.26;94376.97;5072300;28;20166;-75
2022/09/16 06:28:40;;;;;;;13.25;6.50;;;;;;;31.34;36.65;94356.16;5072129;28;20240;-75
2022/09/16 06:31:05;;;;;;;12.45;3.15;;;;;;;30.56;38.82;94376.00;5071550;28;20225;-75
2022/09/16 06:33:31;;;;;;;10.88;3.80;;;;;;;29.75;39.42;94377.19;5054006;28;20654;-75
2022/09/16 06:35:57;;;;;;;9.45;2.90;;;;;;;28.84;39.07;94374.75;5072597;28;20213;-75
2022/09/16 06:38:23;;;;;;;12.90;4.20;;;;;;;28.36;41.96;94374.63;5072056;28;20616;-74
2022/09/16 06:40:49;;;;;;;10.35;2.72;;;;;;;27.99;44.32;94360.94;5072289;28;20178;-74
2022/09/16 06:43:15;;;;;;;13.65;2.90;;;;;;;28.06;42.32;94372.00;5072206;28;20175;-75
2022/09/16 06:45:40;;;;;;;17.05;3.92;;;;;;;28.71;39.98;94381.25;5072473;28;20178;-74
2022/09/16 06:48:06;;;;;;;9.55;3.10;;;;;;;29.24;40.03;94377.56;5072566;28;20621;-75
2022/09/16 06:50:31;;;;;;;16.00;3.05;;;;;;;29.77;38.63;94385.75;5072426;28;20174;-74
2022/09/16 06:52:56;;;;;;;13.05;3.45;;;;;;;30.10;37.18;94389.06;5072423;28;20690;-74
2022/09/16 06:55:22;;;;;;;11.98;3.92;;;;;;;30.82;38.35;94395.31;5072312;28;20694;-74
2022/09/16 06:57:47;;;;;;;12.15;3.80;;;;;;;31.54;34.99;94373.34;5072290;28;20301;-74
2022/09/16 07:00:13;;;;;;;31.35;5.00;;;;;;;32.15;34.12;94389.84;5072038;28;20186;-74
2022/09/16 07:02:38;;;;;;;12.35;3.88;;;;;;;32.17;34.67;94382.13;5069880;28;20227;-75
2022/09/16 07:05:04;;;;;;;15.55;2.70;;;;;;;32.53;34.12;94395.28;5053556;28;20177;-75
2022/09/16 07:07:35;;;;;;;15.93;2.78;;;;;;;32.86;32.88;94393.97;5071756;28;20193;-74
2022/09/16 07:10:00;;;;;;;8.02;2.65;;;;;;;32.76;32.75;94389.09;5072086;28;20227;-74
2022/09/16 07:12:27;;;;;;;9.27;3.22;;;;;;;32.71;33.88;94395.63;5054277;28;20596;-74
2022/09/16 07:14:52;;;;;;;9.50;2.53;;;;;;;32.74;32.62;94394.13;5071956;28;20170;-74
2022/09/16 07:17:18;;;;;;;6.20;2.13;;;;;;;32.64;33.29;94395.47;5071806;28;20335;-76
2022/09/16 07:19:43;;;;;;;6.43;2.60;;;;;;;32.43;33.95;94392.38;5072080;28;20253;-76
2022/09/16 07:22:10;;;;;;;8.32;2.85;;;;;;;32.28;33.88;94391.28;5072475;28;20177;-76
2022/09/16 07:24:35;;;;;;;7.85;2.17;;;;;;;32.14;33.85;94388.25;5072228;28;20177;-75
2022/09/16 07:27:01;;;;;;;8.82;2.42;;;;;;;32.31;33.48;94389.78;5071798;28;20174;-76
2022/09/16 07:29:26;;;;;;;6.78;2.10;;;;;;;32.33;32.68;94374.66;5071802;28;20185;-76
2022/09/16 07:31:52;;;;;;;8.75;2.40;;;;;;;32.18;32.52;94383.69;5071371;28;20178;-75
2022/09/16 07:34:18;;;;;;;12.15;2.75;;;;;;;31.99;33.99;94380.97;5071806;28;20178;-75
2022/09/16 07:36:47;;;;;;;7.93;2.10;;;;;;;31.85;33.71;94381.44;5066979;28;20317;-76
2022/09/16 07:39:15;;;;;;;8.13;2.60;;;;;;;32.07;33.60;94380.75;5051967;28;20175;-76
2022/09/16 07:41:44;;;;;;;9.15;2.22;;;;;;;32.20;33.47;94370.50;5029930;28;20171;-76
2022/09/16 07:44:12;;;;;;;8.88;2.30;;;;;;;31.99;32.52;94354.50;5051460;28;20186;-78
2022/09/16 07:46:38;;;;;;;6.30;2.28;;;;;;;31.95;33.16;94358.28;5051567;28;20221;-78
2022/09/16 07:49:07;;;;;;;7.88;2.30;;;;;;;31.38;33.33;94338.00;5052496;28;20175;-77
2022/09/16 07:51:32;;;;;;;8.00;2.47;;;;;;;31.57;34.14;94359.78;5051650;28;20175;-76
2022/09/16 07:54:04;;;;;;;7.15;2.10;;;;;;;31.49;33.98;94352.63;5051478;28;20198;-76
2022/09/16 07:56:33;;;;;;;7.53;1.95;;;;;;;31.20;34.83;94362.09;5049357;28;20208;-77
2022/09/16 07:58:59;;;;;;;8.40;2.10;;;;;;;30.93;34.50;94362.94;5052180;28;20185;-77
2022/09/16 08:01:25;;;;;;;6.50;2.35;;;;;;;30.81;35.34;94333.13;5050238;28;20669;-75
2022/09/16 08:03:51;;;;;;;8.20;2.08;;;;;;;31.03;35.81;94337.94;5050800;28;20709;-75
2022/09/16 08:06:20;;;;;;;24.42;2.53;;;;;;;31.09;33.89;94350.94;5050933;28;20253;-75
2022/09/16 08:08:47;;;;;;;7.78;2.20;;;;;;;31.13;34.39;94344.81;5050681;28;20181;-75
2022/09/16 08:11:13;;;;;;;8.13;2.10;;;;;;;31.05;36.00;94339.16;5050342;28;20181;-75
2022/09/16 08:13:40;;;;;;;11.68;2.35;;;;;;;30.99;34.53;94332.41;5047924;28;20190;-75
2022/09/16 08:16:17;;;;;;;9.77;2.83;;;;;;;30.92;36.67;94324.09;5051319;28;20178;-75
2022/09/16 08:18:44;;;;;;;7.82;2.83;;;;;;;31.25;35.17;94336.53;5050760;28;20248;-76
2022/09/16 08:21:18;;;;;;;10.82;2.35;;;;;;;31.63;35.29;94331.19;5050064;28;20185;-75
2022/09/16 08:23:44;;;;;;;13.50;3.03;;;;;;;31.88;35.78;94333.63;5032456;28;20194;-75
2022/09/16 08:26:11;;;;;;;14.73;2.53;;;;;;;32.00;34.97;94334.28;5047921;28;20249;-76
2022/09/16 08:28:38;;;;;;;11.75;2.40;;;;;;;31.95;34.80;94317.44;5049808;28;20932;-77
2022/09/16 08:31:04;;;;;;;8.52;3.25;;;;;;;31.90;35.62;94323.97;5049989;28;20194;-77
2022/09/16 08:33:30;;;;;;;6.68;1.90;;;;;;;31.67;33.57;94332.03;5051340;28;20182;-78
2022/09/16 08:35:59;;;;;;;8.85;2.50;;;;;;;31.31;34.35;94322.28;5051280;28;20232;-77
2022/09/16 08:38:25;;;;;;;9.15;2.53;;;;;;;30.80;34.68;94323.38;5055286;28;20272;-77
2022/09/16 08:41:15;;;;;;;11.93;3.47;;;;;;;30.34;36.13;94320.28;5068282;28;20586;-77
2022/09/16 08:43:56;;;;;;;10.60;2.38;;;;;;;30.02;36.59;94313.97;5025037;28;20577;-78
2022/09/16 08:46:44;;;;;;;7.80;2.63;;;;;;;29.67;37.29;94318.38;5071496;28;20198;-77
2022/09/16 08:49:39;;;;;;;8.27;2.28;;;;;;;29.42;39.20;94315.75;5021334;28;20202;-77
2022/09/16 08:52:35;;;;;;;12.32;2.72;;;;;;;29.35;38.40;94312.81;5059431;28;20186;-77
2022/09/16 08:55:30;;;;;;;15.25;3.08;;;;;;;29.26;40.59;94304.00;5068126;28;20384;-77
2022/09/16 08:57:55;;;;;;;10.93;3.00;;;;;;;29.14;38.04;94312.19;5061325;28;20210;-77
2022/09/16 09:00:21;;;;;;;11.38;2.58;;;;;;;28.85;38.90;94313.19;5069916;28;20167;-77
2022/09/16 09:02:55;;;;;;;9.52;2.25;;;;;;;28.63;39.47;94308.22;5069872;28;20182;-77
2022/09/16 09:05:50;;;;;;;7.88;2.50;;;;;;;28.35;39.96;94308.06;5075002;28;20166;-76
2022/09/16 09:08:37;;;;;;;15.38;2.90;;;;;;;28.06;42.52;94315.16;5070443;28;20185;-77
2022/09/16 09:11:19;;;;;;;11.63;2.85;;;;;;;28.07;43.26;94313.25;5070836;28;20231;-75
2022/09/16 09:14:30;;;;;;;9.90;2.75;;;;;;;28.12;42.81;94319.25;5073955;28;20286;-76
2022/09/16 09:17:12;;;;;;;10.35;3.08;;;;;;;28.14;43.39;94311.59;5050812;28;20221;-76
2022/09/16 09:19:56;;;;;;;10.75;3.17;;;;;;;28.19;43.50;94316.03;5074096;28;20170;-76
2022/09/16 09:22:30;;;;;;;8.45;2.30;;;;;;;28.23;43.84;94318.84;5074811;28;20981;-76
2022/09/16 09:25:01;;;;;;;14.15;2.88;;;;;;;28.32;45.51;94320.34;5073710;28;20174;-77
2022/09/16 09:27:41;;;;;;;16.95;3.80;;;;;;;28.40;42.58;94299.69;5073406;28;20574;-76
2022/09/16 09:30:10;;;;;;;9.13;2.60;;;;;;;28.56;42.12;94314.16;5070240;28;20299;-81
2022/09/16 09:33:06;;;;;;;17.67;2.45;;;;;;;28.63;42.81;94310.91;5074819;28;20664;-78
2022/09/16 09:35:49;;;;;;;10.13;2.10;;;;;;;28.70;42.49;94308.44;5066338;28;20182;-78
2022/09/16 09:38:18;;;;;;;11.80;2.60;;;;;;;28.75;43.15;94311.69;5073496;28;20226;-79
2022/09/16 09:41:23;;;;;;;11.43;2.60;;;;;;;28.74;43.18;94315.53;5074481;28;20599;-76
2022/09/16 09:44:15;;;;;;;7.50;2.80;;;;;;;28.73;42.35;94318.56;5068572;28;20178;-76
2022/09/16 09:46:47;;;;;;;14.57;3.55;;;;;;;28.69;44.19;94328.53;5074148;28;20187;-75
2022/09/16 09:49:16;;;;;;;13.80;2.75;;;;;;;28.52;44.20;94314.06;5074249;28;20238;-75
2022/09/16 09:52:03;;;;;;;12.20;2.85;;;;;;;28.46;42.88;94325.44;5074485;28;20178;-76
2022/09/16 09:54:30;;;;;;;8.48;2.83;;;;;;;28.34;44.04;94330.84;5074577;28;20170;-77
2022/09/16 09:57:05;;;;;;;13.05;3.00;;;;;;;28.09;44.91;94316.44;5074204;28;20252;-75
2022/09/16 09:59:54;;;;;;;10.40;2.60;;;;;;;27.91;46.49;94333.97;5073656;28;20855;-75
2022/09/16 10:02:22;;;;;;;10.60;3.58;;;;;;;27.75;47.63;94339.19;5073880;28;20938;-75
2022/09/16 10:04:48;;;;;;;17.45;3.10;;;;;;;27.61;49.61;94366.50;5071934;28;20178;-75
2022/09/16 10:07:17;;;;;;;17.38;3.15;;;;;;;27.43;51.01;94381.22;5063158;28;20572;-75
2022/09/16 10:09:54;;;;;;;27.15;3.47;;;;;;;27.07;53.50;94367.47;5073099;28;20183;-75
2022/09/16 10:12:32;;;;;;;17.88;3.45;;;;;;;26.90;56.34;94393.41;5054563;28;20228;-75
2022/09/16 10:14:58;;;;;;;15.60;3.60;;;;;;;26.63;57.55;94397.34;5071657;28;20249;-75
2022/09/16 10:17:25;;;;;;;17.67;3.92;;;;;;;26.41;58.64;94405.66;5072516;28;20198;-76
2022/09/16 10:20:00;;;;;;;10.75;3.45;;;;;;;26.02;59.89;94451.72;5071204;28;20591;-75
2022/09/16 10:22:33;;;;;;;13.38;3.03;;;;;;;25.89;57.70;94496.63;5053058;28;20576;-75
2022/09/16 10:25:06;;;;;;;13.75;2.60;;;;;;;25.56;57.57;94497.00;5071445;28;20174;-75
2022/09/16 10:27:35;;;;;;;11.45;2.22;;;;;;;25.25;59.51;94506.28;5087147;28;20572;-75
2022/09/16 10:30:20;;;;;;;6.78;2.00;;;;;;;24.96;62.22;94520.22;5085859;28;20182;-75
2022/09/16 10:32:54;;;;;;;7.70;2.05;;;;;;;24.42;63.70;94533.63;5070983;28;20174;-75
2022/09/16 10:35:25;;;;;;;12.63;3.08;;;;;;;23.83;65.64;94523.13;5070982;28;20638;-75
2022/09/16 10:37:54;;;;;;;7.75;3.70;;;;;;;23.44;67.93;94545.16;5070735;28;20218;-75
2022/09/16 10:40:22;;;;;;;6.47;2.25;;;;;;;23.22;69.57;94559.25;5071420;28;20239;-75
2022/09/16 10:42:52;;;;;;;7.97;2.20;;;;;;;22.83;70.80;94511.38;5071425;28;20269;-74
2022/09/16 10:45:29;;;;;;;3.15;1.63;;;;;;;22.77;72.48;94558.16;5072056;28;20231;-74
2022/09/16 10:47:58;;;;;;;14.65;3.17;;;;;;;22.70;73.40;94538.94;5072071;28;20178;-75
2022/09/16 10:50:25;;;;;;;10.38;2.95;;;;;;;22.57;75.61;94543.19;5071454;28;20260;-74
2022/09/16 10:52:51;;;;;;;8.77;2.72;;;;;;;22.28;76.56;94523.78;5054072;28;20256;-74
2022/09/16 10:55:37;;;;;;;11.15;3.42;;;;;;;22.22;77.86;94541.84;5071632;28;20178;-74
2022/09/16 10:58:17;;;;;;;15.88;5.57;;;;;;;21.83;80.24;94517.97;5071612;28;20205;-74
2022/09/16 11:01:12;;;;;;;17.95;6.28;;;;;;;21.40;81.83;94501.91;5071775;28;20182;-74
2022/09/16 11:03:49;;;;;;;10.82;4.97;;;;;;;21.43;81.74;94487.94;5049954;28;20286;-74
2022/09/16 11:06:33;;;;;;;9.48;2.67;;;;;;;21.45;79.81;94450.94;5071676;28;20178;-74
2022/09/16 11:09:01;;;;;;;5.70;1.80;;;;;;;21.62;78.76;94457.72;5071428;28;20174;-74
2022/09/16 11:11:38;;;;;;;7.72;2.40;;;;;;;21.80;78.07;94436.25;5053656;28;20189;-76
2022/09/16 11:14:18;;;;;;;4.88;2.60;;;;;;;22.04;76.77;94420.09;5071799;28;20244;-75
2022/09/16 11:17:25;;;;;;;5.88;2.72;;;;;;;22.26;76.35;94411.41;5066220;28;20202;-75
2022/09/16 11:20:29;;;;;;;4.63;1.90;;;;;;;22.35;72.42;94382.03;5063648;28;20198;-74
2022/09/16 11:23:19;;;;;;;7.90;2.42;;;;;;;22.62;73.77;94368.66;5014455;28;20193;-75
2022/09/16 11:26:17;;;;;;;5.45;2.33;;;;;;;22.87;74.13;94356.66;5072084;28;20186;-74
2022/09/16 11:29:10;;;;;;;3.50;1.88;;;;;;;23.03;71.15;94349.06;5071492;28;20704;-75
2022/09/16 11:31:35;;;;;;;6.20;1.85;;;;;;;23.03;67.42;94343.69;5071521;28;20178;-74
2022/09/16 11:34:22;;;;;;;5.10;1.70;;;;;;;23.13;69.78;94348.84;5049850;28;20220;-74
2022/09/16 11:37:01;;;;;;;4.68;1.75;;;;;;;23.21;67.02;94346.25;5071321;28;20202;-75
2022/09/16 11:39:55;;;;;;;5.43;2.67;;;;;;;23.36;67.97;94347.78;5056003;28;20191;-74
2022/09/16 11:42:29;;;;;;;2.15;1.38;;;;;;;23.12;65.29;94329.25;5047431;28;20194;-76
2022/09/16 11:45:22;;;;;;;2.10;1.25;;;;;;;23.29;66.08;94348.22;5060644;28;20179;-74
2022/09/16 11:47:56;;;;;;;3.88;1.60;;;;;;;23.59;66.18;94337.91;5059684;28;20242;-75
2022/09/16 11:50:57;;;;;;;3.35;1.42;;;;;;;23.93;64.93;94340.84;5071190;28;20188;-74
2022/09/16 11:53:46;;;;;;;1.67;1.10;;;;;;;24.25;63.88;94326.31;5071046;28;20234;-74